createdAt,value
2019-03-25T00:00:26.725Z,0.00
2019-03-25T00:01:26.715Z,0.00
2019-03-25T00:02:26.744Z,0.00
2019-03-25T00:03:26.694Z,0.00
2019-03-25T00:04:26.688Z,0.00
2019-03-25T00:05:26.675Z,0.00
2019-03-25T00:06:26.663Z,0.00
2019-03-25T00:07:26.648Z,0.00
2019-03-25T00:08:26.682Z,0.00
2019-03-25T00:09:26.639Z,0.00
2019-03-25T00:10:26.620Z,0.00
2019-03-25T00:11:26.607Z,0.00
2019-03-25T00:12:26.595Z,0.00
2019-03-25T00:13:26.620Z,0.00
2019-03-25T00:14:26.581Z,0.00
2019-03-25T00:15:26.568Z,0.00
2019-03-25T00:16:26.553Z,0.00
2019-03-25T00:17:26.539Z,0.00
2019-03-25T00:18:26.535Z,0.00
2019-03-25T00:19:26.558Z,0.00
2019-03-25T00:20:26.510Z,0.00
2019-03-25T00:21:26.511Z,0.00
2019-03-25T00:22:26.489Z,0.00
2019-03-25T00:23:26.475Z,0.00
2019-03-25T00:24:37.899Z,0.00
2019-03-25T00:25:27.498Z,0.00
2019-03-25T00:26:26.443Z,0.00
2019-03-25T00:27:26.444Z,0.00
2019-03-25T00:28:26.421Z,0.00
2019-03-25T00:29:26.430Z,0.00
2019-03-25T00:30:26.404Z,0.00
2019-03-25T00:31:26.428Z,0.00
2019-03-25T00:32:26.381Z,0.00
2019-03-25T00:33:26.387Z,0.00
2019-03-25T00:34:26.358Z,0.00
2019-03-25T00:35:26.349Z,0.00
2019-03-25T00:36:26.334Z,0.00
2019-03-25T00:37:26.357Z,0.00
2019-03-25T00:38:26.323Z,0.00
2019-03-25T00:39:26.350Z,0.00
2019-03-25T00:40:26.295Z,0.00
2019-03-25T00:41:26.284Z,0.00
2019-03-25T00:42:26.272Z,0.00
2019-03-25T00:43:26.258Z,0.00
2019-03-25T00:44:26.254Z,0.00
2019-03-25T00:45:26.283Z,0.00
2019-03-25T00:46:26.234Z,0.00
2019-03-25T00:47:26.228Z,0.00
2019-03-25T00:48:26.228Z,0.00
2019-03-25T00:49:26.204Z,0.00
2019-03-25T00:50:26.190Z,0.00
2019-03-25T00:51:26.219Z,0.00
2019-03-25T00:52:26.165Z,0.00
2019-03-25T00:53:26.156Z,0.00
2019-03-25T00:54:26.161Z,0.00
2019-03-25T00:55:26.130Z,0.00
2019-03-25T00:56:26.123Z,0.00
2019-03-25T00:57:26.153Z,0.00
2019-03-25T00:58:26.103Z,0.00
2019-03-25T00:59:26.103Z,0.00
2019-03-25T01:00:26.078Z,0.00
2019-03-25T01:01:26.067Z,0.00
2019-03-25T01:02:26.064Z,0.00
2019-03-25T01:03:26.083Z,0.00
2019-03-25T01:04:26.070Z,0.00
2019-03-25T01:05:26.023Z,0.00
2019-03-25T01:06:26.014Z,0.00
2019-03-25T01:07:26.005Z,0.00
2019-03-25T01:08:26.003Z,0.00
2019-03-25T01:09:26.022Z,0.00
2019-03-25T01:10:26.034Z,0.00
2019-03-25T01:11:25.965Z,0.00
2019-03-25T01:12:25.952Z,0.00
2019-03-25T01:13:25.947Z,0.00
2019-03-25T01:14:25.931Z,0.00
2019-03-25T01:15:25.960Z,0.00
2019-03-25T01:16:25.907Z,0.00
2019-03-25T01:17:25.905Z,0.00
2019-03-25T01:18:25.889Z,0.00
2019-03-25T01:19:25.891Z,0.00
2019-03-25T01:20:25.989Z,0.00
2019-03-25T01:21:25.854Z,0.00
2019-03-25T01:22:25.878Z,0.00
2019-03-25T01:23:25.834Z,0.00
2019-03-25T01:24:25.821Z,0.00
2019-03-25T01:25:25.813Z,0.00
2019-03-25T01:26:25.847Z,0.00
2019-03-25T01:27:25.789Z,0.00
2019-03-25T01:28:25.778Z,0.00
2019-03-25T01:29:25.776Z,0.00
2019-03-25T01:30:25.774Z,0.00
2019-03-25T01:31:25.742Z,0.00
2019-03-25T01:32:25.771Z,0.00
2019-03-25T01:33:25.726Z,0.00
2019-03-25T01:34:25.711Z,0.00
2019-03-25T01:35:25.701Z,0.00
2019-03-25T01:36:25.700Z,0.00
2019-03-25T01:37:25.681Z,0.00
2019-03-25T01:38:25.700Z,0.00
2019-03-25T01:39:25.662Z,0.00
2019-03-25T01:40:25.646Z,0.00
2019-03-25T01:41:25.634Z,0.00
2019-03-25T01:42:25.633Z,0.00
2019-03-25T01:43:25.656Z,0.00
2019-03-25T01:44:25.605Z,0.00
2019-03-25T01:45:25.593Z,0.00
2019-03-25T01:46:25.582Z,0.00
2019-03-25T01:47:25.582Z,0.00
2019-03-25T01:48:25.570Z,0.00
2019-03-25T01:49:25.597Z,0.00
2019-03-25T01:50:25.558Z,0.00
2019-03-25T01:51:25.536Z,0.00
2019-03-25T01:52:25.535Z,0.00
2019-03-25T01:53:25.535Z,0.00
2019-03-25T01:54:25.500Z,0.00
2019-03-25T01:55:25.544Z,0.00
2019-03-25T01:56:25.478Z,0.00
2019-03-25T01:57:25.477Z,0.00
2019-03-25T01:58:25.454Z,0.00
2019-03-25T01:59:25.447Z,0.00
2019-03-25T02:00:25.433Z,0.00
2019-03-25T02:01:25.461Z,0.00
2019-03-25T02:02:25.413Z,0.00
2019-03-25T02:03:25.403Z,0.00
2019-03-25T02:04:25.416Z,0.00
2019-03-25T02:05:25.415Z,0.00
2019-03-25T02:06:25.376Z,0.00
2019-03-25T02:07:25.363Z,0.00
2019-03-25T02:08:25.354Z,0.00
2019-03-25T02:09:25.341Z,0.00
2019-03-25T02:10:25.335Z,0.00
2019-03-25T02:11:25.358Z,0.00
2019-03-25T02:12:25.304Z,0.00
2019-03-25T02:13:25.302Z,0.00
2019-03-25T02:14:25.305Z,0.00
2019-03-25T02:15:25.276Z,0.00
2019-03-25T02:16:25.277Z,0.00
2019-03-25T02:17:25.292Z,0.00
2019-03-25T02:18:25.248Z,0.00
2019-03-25T02:19:25.229Z,0.00
2019-03-25T02:20:26.782Z,0.00
2019-03-25T02:21:25.208Z,0.00
2019-03-25T02:22:25.246Z,0.00
2019-03-25T02:23:25.239Z,0.00
2019-03-25T02:24:25.184Z,0.00
2019-03-25T02:25:25.997Z,0.00
2019-03-25T02:26:25.164Z,0.00
2019-03-25T02:27:25.153Z,0.00
2019-03-25T02:28:25.133Z,0.00
2019-03-25T02:29:25.164Z,0.00
2019-03-25T02:30:25.120Z,0.00
2019-03-25T02:31:25.104Z,0.00
2019-03-25T02:32:25.100Z,0.00
2019-03-25T02:33:25.095Z,0.00
2019-03-25T02:34:25.084Z,0.00
2019-03-25T02:35:25.104Z,0.00
2019-03-25T02:36:25.051Z,0.00
2019-03-25T02:37:25.049Z,0.00
2019-03-25T02:38:25.030Z,0.00
2019-03-25T02:39:25.048Z,0.00
2019-03-25T02:40:25.023Z,0.00
2019-03-25T02:41:25.048Z,0.00
2019-03-25T02:42:24.995Z,0.00
2019-03-25T02:43:24.996Z,0.00
2019-03-25T02:44:24.985Z,0.00
2019-03-25T02:45:24.963Z,0.00
2019-03-25T02:46:24.951Z,0.00
2019-03-25T02:47:24.971Z,0.00
2019-03-25T02:48:24.942Z,0.00
2019-03-25T02:49:24.933Z,0.00
2019-03-25T02:50:24.903Z,0.00
2019-03-25T02:51:24.901Z,0.00
2019-03-25T02:52:24.882Z,0.00
2019-03-25T02:53:24.908Z,0.00
2019-03-25T02:54:24.897Z,0.00
2019-03-25T02:55:40.193Z,0.00
2019-03-25T02:56:25.844Z,0.00
2019-03-25T02:57:24.829Z,0.00
2019-03-25T02:58:24.822Z,0.00
2019-03-25T02:59:24.842Z,0.00
2019-03-25T03:00:24.833Z,0.00
2019-03-25T03:01:24.795Z,0.00
2019-03-25T03:02:24.788Z,0.00
2019-03-25T03:03:24.766Z,0.00
2019-03-25T03:04:24.752Z,0.00
2019-03-25T03:05:24.741Z,0.00
2019-03-25T03:06:24.769Z,0.00
2019-03-25T03:07:24.734Z,0.00
2019-03-25T03:08:24.725Z,0.00
2019-03-25T03:09:24.699Z,0.00
2019-03-25T03:10:24.688Z,0.00
2019-03-25T03:11:24.684Z,0.00
2019-03-25T03:12:24.704Z,0.00
2019-03-25T03:13:24.665Z,0.00
2019-03-25T03:14:24.662Z,0.00
2019-03-25T03:15:24.680Z,0.00
2019-03-25T03:16:24.630Z,0.00
2019-03-25T03:17:24.626Z,0.00
2019-03-25T03:18:24.651Z,0.00
2019-03-25T03:19:24.596Z,0.00
2019-03-25T03:20:24.625Z,0.00
2019-03-25T03:21:24.587Z,0.00
2019-03-25T03:22:24.563Z,0.00
2019-03-25T03:23:24.566Z,0.00
2019-03-25T03:24:24.541Z,0.00
2019-03-25T03:25:24.536Z,0.00
2019-03-25T03:26:24.569Z,0.00
2019-03-25T03:27:24.513Z,0.00
2019-03-25T03:28:24.498Z,0.00
2019-03-25T03:29:24.485Z,0.00
2019-03-25T03:30:24.486Z,0.00
2019-03-25T03:31:24.478Z,0.00
2019-03-25T03:32:24.494Z,0.00
2019-03-25T03:33:24.484Z,0.00
2019-03-25T03:34:24.453Z,0.00
2019-03-25T03:35:24.433Z,0.00
2019-03-25T03:36:24.416Z,0.00
2019-03-25T03:37:24.409Z,0.00
2019-03-25T03:38:24.433Z,0.00
2019-03-25T03:39:24.384Z,0.00
2019-03-25T03:40:24.370Z,0.00
2019-03-25T03:41:24.369Z,0.00
2019-03-25T03:42:24.355Z,0.00
2019-03-25T03:43:24.389Z,0.00
2019-03-25T03:44:24.369Z,0.00
2019-03-25T03:45:24.331Z,0.00
2019-03-25T03:46:24.309Z,0.00
2019-03-25T03:47:24.306Z,0.00
2019-03-25T03:48:24.294Z,0.00
2019-03-25T03:49:24.275Z,0.00
2019-03-25T03:50:24.328Z,0.00
2019-03-25T03:51:24.259Z,0.00
2019-03-25T03:52:24.248Z,0.00
2019-03-25T03:53:24.234Z,0.00
2019-03-25T03:54:24.222Z,0.00
2019-03-25T03:55:24.212Z,0.00
2019-03-25T03:56:24.233Z,0.00
2019-03-25T03:57:24.185Z,0.00
2019-03-25T03:58:24.177Z,0.00
2019-03-25T03:59:24.176Z,0.00
2019-03-25T04:00:24.181Z,0.00
2019-03-25T04:01:24.146Z,0.00
2019-03-25T04:02:24.179Z,0.00
2019-03-25T04:03:24.130Z,0.00
2019-03-25T04:04:24.111Z,0.00
2019-03-25T04:05:24.101Z,0.00
2019-03-25T04:06:24.103Z,0.00
2019-03-25T04:07:24.096Z,0.00
2019-03-25T04:08:24.105Z,0.00
2019-03-25T04:09:24.058Z,0.00
2019-03-25T04:10:24.048Z,0.00
2019-03-25T04:11:24.039Z,0.00
2019-03-25T04:12:24.041Z,0.00
2019-03-25T04:13:24.024Z,0.00
2019-03-25T04:14:24.052Z,0.00
2019-03-25T04:15:24.003Z,0.00
2019-03-25T04:16:23.987Z,0.00
2019-03-25T04:17:23.988Z,0.00
2019-03-25T04:18:23.963Z,0.00
2019-03-25T04:19:23.953Z,0.00
2019-03-25T04:20:24.005Z,0.00
2019-03-25T04:21:23.931Z,0.00
2019-03-25T04:22:23.929Z,0.00
2019-03-25T04:23:23.920Z,0.00
2019-03-25T04:24:23.901Z,0.00
2019-03-25T04:25:23.889Z,0.00
2019-03-25T04:26:28.865Z,0.00
2019-03-25T04:27:24.883Z,0.00
2019-03-25T04:28:23.870Z,0.00
2019-03-25T04:29:23.851Z,0.00
2019-03-25T04:30:23.840Z,0.00
2019-03-25T04:31:23.839Z,0.00
2019-03-25T04:32:23.873Z,0.00
2019-03-25T04:33:23.808Z,0.00
2019-03-25T04:34:23.805Z,0.00
2019-03-25T04:35:23.782Z,0.00
2019-03-25T04:36:23.770Z,0.00
2019-03-25T04:37:23.763Z,0.00
2019-03-25T04:38:23.789Z,0.00
2019-03-25T04:39:23.748Z,0.00
2019-03-25T04:40:23.771Z,0.00
2019-03-25T04:41:23.746Z,0.00
2019-03-25T04:42:23.713Z,0.00
2019-03-25T04:43:23.699Z,0.00
2019-03-25T04:44:23.686Z,0.00
2019-03-25T04:45:23.676Z,4.00
2019-03-25T04:46:23.712Z,4.00
2019-03-25T04:47:23.661Z,0.00
2019-03-25T04:48:23.655Z,4.00
2019-03-25T04:49:23.633Z,4.00
2019-03-25T04:50:23.629Z,4.00
2019-03-25T04:51:23.612Z,8.00
2019-03-25T04:52:23.642Z,8.00
2019-03-25T04:53:23.607Z,8.00
2019-03-25T04:54:23.587Z,12.00
2019-03-25T04:55:23.570Z,12.00
2019-03-25T04:56:23.563Z,12.00
2019-03-25T04:57:23.550Z,20.00
2019-03-25T04:58:23.572Z,24.00
2019-03-25T04:59:23.537Z,28.00
2019-03-25T05:00:23.527Z,36.00
2019-03-25T05:01:23.514Z,44.00
2019-03-25T05:02:23.533Z,52.00
2019-03-25T05:03:23.484Z,64.00
2019-03-25T05:04:23.478Z,80.00
2019-03-25T05:05:23.465Z,88.00
2019-03-25T05:06:23.465Z,108.00
2019-03-25T05:07:23.457Z,124.00
2019-03-25T05:08:23.469Z,144.00
2019-03-25T05:09:23.431Z,164.00
2019-03-25T05:10:23.415Z,188.00
2019-03-25T05:11:30.479Z,216.00
2019-03-25T05:12:24.427Z,244.00
2019-03-25T05:13:23.387Z,272.00
2019-03-25T05:14:23.376Z,308.00
2019-03-25T05:15:23.419Z,344.00
2019-03-25T05:16:23.397Z,384.00
2019-03-25T05:17:23.337Z,436.00
2019-03-25T05:18:23.364Z,484.00
2019-03-25T05:19:23.317Z,532.00
2019-03-25T05:20:23.305Z,584.00
2019-03-25T05:21:23.300Z,632.00
2019-03-25T05:22:23.289Z,688.00
2019-03-25T05:23:23.279Z,740.00
2019-03-25T05:24:23.319Z,800.00
2019-03-25T05:25:23.261Z,852.00
2019-03-25T05:26:23.245Z,908.00
2019-03-25T05:27:23.240Z,960.00
2019-03-25T05:28:23.248Z,1008.00
2019-03-25T05:29:23.217Z,1064.00
2019-03-25T05:30:23.259Z,1132.00
2019-03-25T05:31:23.219Z,1200.00
2019-03-25T05:32:23.183Z,1268.00
2019-03-25T05:33:23.284Z,1344.00
2019-03-25T05:34:23.161Z,1428.00
2019-03-25T05:35:23.202Z,1512.00
2019-03-25T05:36:23.199Z,1600.00
2019-03-25T05:37:23.153Z,1700.00
2019-03-25T05:38:23.116Z,1824.00
2019-03-25T05:39:23.111Z,1940.00
2019-03-25T05:40:23.101Z,2044.00
2019-03-25T05:41:23.082Z,2160.00
2019-03-25T05:42:23.108Z,2268.00
2019-03-25T05:43:23.071Z,2380.00
2019-03-25T05:44:23.068Z,2472.00
2019-03-25T05:45:23.073Z,2572.00
2019-03-25T05:46:24.110Z,2676.00
2019-03-25T05:47:23.070Z,2792.00
2019-03-25T05:48:23.562Z,2896.00
2019-03-25T05:49:23.100Z,3000.00
2019-03-25T05:50:23.007Z,3112.00
2019-03-25T05:51:22.978Z,3248.00
2019-03-25T05:54:49.924Z,3792.00
2019-03-25T05:57:08.812Z,4092.00
2019-03-25T06:00:37.997Z,4672.00
2019-03-25T06:01:45.681Z,4812.00
2019-03-25T06:02:33.475Z,5000.00
2019-03-25T06:03:39.602Z,5112.00
2019-03-25T06:04:33.489Z,5240.00
2019-03-25T06:05:38.109Z,5388.00
2019-03-25T06:06:41.255Z,5524.00
2019-03-25T06:08:51.376Z,6240.00
2019-03-25T06:09:54.124Z,6716.00
2019-03-25T06:10:59.222Z,7164.00
2019-03-25T06:11:54.155Z,7600.00
2019-03-25T06:13:01.878Z,7992.00
2019-03-25T06:13:51.303Z,8348.00
2019-03-25T06:14:51.271Z,8616.00
2019-03-25T06:17:48.492Z,9524.00
2019-03-25T06:18:54.342Z,9808.00
2019-03-25T06:19:47.253Z,10004.00
2019-03-25T06:20:47.269Z,10184.00
2019-03-25T06:21:47.225Z,10324.00
2019-03-25T06:22:49.969Z,10280.00
2019-03-25T06:23:55.373Z,10284.00
2019-03-25T06:24:47.198Z,10224.00
2019-03-25T06:25:47.187Z,10036.00
2019-03-25T06:26:47.169Z,9888.00
2019-03-25T06:27:47.148Z,9660.00
2019-03-25T06:28:47.143Z,9252.00
2019-03-25T06:29:47.158Z,8864.00
2019-03-25T06:30:54.204Z,8768.00
2019-03-25T06:31:47.130Z,8644.00
2019-03-25T06:32:47.100Z,8460.00
2019-03-25T06:33:54.215Z,8284.00
2019-03-25T06:34:47.090Z,8136.00
2019-03-25T06:35:47.097Z,8280.00
2019-03-25T06:36:54.133Z,7992.00
2019-03-25T06:37:47.075Z,8164.00
2019-03-25T06:38:47.030Z,8688.00
2019-03-25T06:39:47.020Z,9192.00
2019-03-25T06:40:49.205Z,9484.00
2019-03-25T06:41:47.713Z,9672.00
2019-03-25T06:42:47.003Z,9944.00
2019-03-25T06:43:47.648Z,10228.00
2019-03-25T06:44:47.649Z,10364.00
2019-03-25T06:45:49.703Z,10392.00
2019-03-25T06:46:47.591Z,10524.00
2019-03-25T06:47:46.982Z,11084.00
2019-03-25T06:48:46.943Z,11696.00
2019-03-25T06:49:53.996Z,11900.00
2019-03-25T06:50:46.923Z,12264.00
2019-03-25T06:51:53.939Z,12508.00
2019-03-25T06:52:46.904Z,12444.00
2019-03-25T06:53:54.289Z,13636.00
2019-03-25T06:54:54.005Z,11176.00
2019-03-25T06:55:46.855Z,10508.00
2019-03-25T06:56:46.839Z,9992.00
2019-03-25T06:57:46.833Z,9832.00
2019-03-25T06:58:46.828Z,9924.00
2019-03-25T07:00:16.884Z,9992.00
2019-03-25T07:00:46.806Z,9960.00
2019-03-25T07:01:46.795Z,10160.00
2019-03-25T07:02:46.777Z,10700.00
2019-03-25T07:03:46.757Z,10988.00
2019-03-25T07:05:55.602Z,11132.00
2019-03-25T07:06:55.535Z,11188.00
2019-03-25T07:07:55.505Z,11144.00
2019-03-25T07:08:55.512Z,11300.00
2019-03-25T07:09:55.495Z,10996.00
2019-03-25T07:10:55.483Z,10904.00
2019-03-25T07:11:55.527Z,10916.00
2019-03-25T07:12:55.456Z,10744.00
2019-03-25T07:15:05.213Z,10312.00
2019-03-25T07:16:05.195Z,10268.00
2019-03-25T07:17:05.219Z,10280.00
2019-03-25T07:18:05.160Z,10196.00
2019-03-25T07:19:12.559Z,10056.00
2019-03-25T07:20:05.135Z,10248.00
2019-03-25T07:21:05.467Z,10000.00
2019-03-25T07:22:05.130Z,9868.00
2019-03-25T07:27:19.267Z,9696.00
2019-03-25T07:28:19.283Z,10460.00
2019-03-25T07:29:26.755Z,11408.00
2019-03-25T07:30:18.176Z,11944.00
2019-03-25T07:31:25.253Z,12304.00
2019-03-25T07:32:18.147Z,12220.00
2019-03-25T07:33:39.149Z,12012.00
2019-03-25T07:34:18.128Z,11604.00
2019-03-25T07:35:18.100Z,11552.00
2019-03-25T07:36:18.109Z,11640.00
2019-03-25T07:37:18.743Z,12524.00
2019-03-25T07:40:35.688Z,14800.00
2019-03-25T07:41:42.675Z,15020.00
2019-03-25T07:42:35.548Z,15524.00
2019-03-25T07:44:10.874Z,16084.00
2019-03-25T07:44:36.289Z,16304.00
2019-03-25T07:45:35.501Z,17760.00
2019-03-25T07:46:35.516Z,21056.00
2019-03-25T07:47:52.374Z,19968.00
2019-03-25T07:48:35.493Z,20864.00
2019-03-25T07:49:35.505Z,21536.00
2019-03-25T07:50:35.509Z,23776.00
2019-03-25T07:51:35.436Z,25888.00
2019-03-25T07:52:59.836Z,31808.00
2019-03-25T07:53:35.426Z,23840.00
2019-03-25T07:54:35.428Z,23840.00
2019-03-25T07:55:35.404Z,31296.00
2019-03-25T07:56:35.403Z,34944.00
2019-03-25T07:58:04.317Z,29920.00
2019-03-25T07:58:35.454Z,32320.00
2019-03-25T07:59:35.365Z,25088.00
2019-03-25T08:00:35.405Z,26912.00
2019-03-25T08:01:36.307Z,30208.00
2019-03-25T08:02:35.347Z,56640.00
2019-03-25T08:03:35.307Z,52896.00
2019-03-25T08:04:35.341Z,41568.00
2019-03-25T08:05:35.327Z,38336.00
2019-03-25T08:06:35.793Z,40512.00
2019-03-25T08:07:43.916Z,52608.00
2019-03-25T08:08:35.260Z,49920.00
2019-03-25T08:09:35.275Z,53952.00
2019-03-25T08:10:35.290Z,62400.00
2019-03-25T08:11:35.321Z,59616.00
2019-03-25T08:12:50.940Z,43456.00
2019-03-25T08:13:35.202Z,38240.00
2019-03-25T08:14:35.209Z,35264.00
2019-03-25T08:15:35.178Z,36896.00
2019-03-25T08:16:35.223Z,38048.00
2019-03-25T08:17:35.157Z,39232.00
2019-03-25T08:18:35.153Z,42560.00
2019-03-25T08:19:35.160Z,67136.00
2019-03-25T08:20:35.126Z,66880.00
2019-03-25T08:21:35.131Z,66304.00
2019-03-25T08:22:35.146Z,57760.00
2019-03-25T08:23:35.095Z,45504.00
2019-03-25T08:24:35.789Z,30720.00
2019-03-25T08:25:35.076Z,28448.00
2019-03-25T08:26:50.999Z,25056.00
2019-03-25T08:27:35.051Z,22272.00
2019-03-25T08:28:35.081Z,21824.00
2019-03-25T08:29:44.357Z,21984.00
2019-03-25T08:30:35.019Z,21408.00
2019-03-25T08:31:42.855Z,20096.00
2019-03-25T08:32:49.189Z,18624.00
2019-03-25T08:33:42.056Z,18112.00
2019-03-25T08:34:42.967Z,18720.00
2019-03-25T08:35:42.117Z,19232.00
2019-03-25T08:36:42.320Z,19808.00
2019-03-25T08:37:42.016Z,18976.00
2019-03-25T08:38:48.064Z,17676.00
2019-03-25T08:39:52.783Z,18080.00
2019-03-25T08:40:42.025Z,19168.00
2019-03-25T08:41:35.184Z,20992.00
2019-03-25T08:42:41.975Z,22336.00
2019-03-25T08:43:34.891Z,23168.00
2019-03-25T08:44:34.920Z,24736.00
2019-03-25T08:45:34.877Z,27072.00
2019-03-25T08:46:34.896Z,48384.00
2019-03-25T08:47:34.842Z,29664.00
2019-03-25T08:48:34.827Z,35040.00
2019-03-25T08:49:34.819Z,55488.00
2019-03-25T08:50:50.745Z,30240.00
2019-03-25T08:51:34.792Z,28480.00
2019-03-25T08:52:34.847Z,28032.00
2019-03-25T08:53:37.668Z,30048.00
2019-03-25T08:54:42.802Z,61344.00
2019-03-25T08:57:53.705Z,53056.00
2019-03-25T08:58:53.657Z,69344.00
2019-03-25T09:00:00.681Z,40416.00
2019-03-25T09:01:01.677Z,44480.00
2019-03-25T09:01:53.621Z,59488.00
2019-03-25T09:03:02.003Z,36480.00
2019-03-25T09:04:01.948Z,41056.00
2019-03-25T09:05:03.589Z,67744.00
2019-03-25T09:05:53.563Z,62528.00
2019-03-25T09:07:05.671Z,57664.00
2019-03-25T09:08:06.136Z,74816.00
2019-03-25T09:08:53.576Z,81600.00
2019-03-25T09:10:00.621Z,48576.00
2019-03-25T09:11:00.589Z,29888.00
2019-03-25T09:11:53.509Z,28864.00
2019-03-25T09:12:53.492Z,29600.00
2019-03-25T09:13:54.693Z,29056.00
2019-03-25T09:15:03.244Z,26816.00
2019-03-25T09:15:53.463Z,26848.00
2019-03-25T09:16:53.441Z,20896.00
2019-03-25T09:17:53.434Z,19264.00
2019-03-25T09:19:07.783Z,18368.00
2019-03-25T09:20:08.819Z,17976.00
2019-03-25T09:20:56.316Z,19072.00
2019-03-25T09:21:53.383Z,21632.00
2019-03-25T09:22:53.386Z,23904.00
2019-03-25T09:24:01.393Z,28160.00
2019-03-25T09:24:53.396Z,38848.00
2019-03-25T09:26:12.041Z,72640.00
2019-03-25T09:26:53.905Z,83424.00
2019-03-25T09:28:07.468Z,60000.00
2019-03-25T09:29:00.374Z,77600.00
2019-03-25T09:31:09.353Z,92896.00
2019-03-25T09:32:25.578Z,94016.00
2019-03-25T09:33:16.359Z,98304.00
2019-03-25T09:34:09.838Z,95136.00
2019-03-25T09:35:16.330Z,94336.00
2019-03-25T09:36:09.275Z,98400.00
2019-03-25T09:37:11.349Z,94848.00
2019-03-25T09:38:22.323Z,99712.00
2019-03-25T09:39:16.262Z,102272.00
2019-03-25T09:40:09.236Z,85632.00
2019-03-25T09:41:21.874Z,70624.00
2019-03-25T09:42:16.208Z,103424.00
2019-03-25T09:43:16.520Z,106080.00
2019-03-25T09:44:16.227Z,104448.00
2019-03-25T09:45:09.145Z,107200.00
2019-03-25T09:46:09.162Z,103616.00
2019-03-25T09:47:09.115Z,99968.00
2019-03-25T09:48:16.144Z,42432.00
2019-03-25T09:49:16.439Z,36512.00
2019-03-25T09:50:09.112Z,31264.00
2019-03-25T09:51:16.141Z,29056.00
2019-03-25T09:52:09.059Z,30112.00
2019-03-25T09:53:16.677Z,37920.00
2019-03-25T09:54:18.686Z,38080.00
2019-03-25T09:55:23.237Z,79328.00
2019-03-25T09:56:09.017Z,66272.00
2019-03-25T09:57:16.183Z,59072.00
2019-03-25T09:58:16.042Z,35232.00
2019-03-25T09:59:16.011Z,56064.00
2019-03-25T10:00:09.021Z,47520.00
2019-03-25T10:01:08.970Z,88992.00
2019-03-25T10:02:08.950Z,58496.00
2019-03-25T10:04:25.429Z,35104.00
2019-03-25T10:05:24.712Z,32288.00
2019-03-25T10:06:24.702Z,32608.00
2019-03-25T10:07:28.471Z,33472.00
2019-03-25T10:08:33.504Z,36192.00
2019-03-25T10:09:32.737Z,64960.00
2019-03-25T10:10:40.970Z,108160.00
2019-03-25T10:11:24.651Z,104832.00
2019-03-25T10:12:37.944Z,88544.00
2019-03-25T10:13:24.634Z,52352.00
2019-03-25T10:14:24.644Z,64096.00
2019-03-25T10:15:24.589Z,62976.00
2019-03-25T10:16:24.580Z,47616.00
2019-03-25T10:17:24.589Z,120608.00
2019-03-25T10:18:24.560Z,114848.00
2019-03-25T10:19:24.550Z,113760.00
2019-03-25T10:20:24.619Z,80640.00
2019-03-25T10:21:24.534Z,121344.00
2019-03-25T10:22:24.529Z,121184.00
2019-03-25T10:23:24.523Z,116896.00
2019-03-25T10:24:27.777Z,104384.00
2019-03-25T10:25:24.527Z,94752.00
2019-03-25T10:26:24.506Z,60960.00
2019-03-25T10:27:24.460Z,30208.00
2019-03-25T10:28:24.459Z,26112.00
2019-03-25T10:29:24.450Z,23712.00
2019-03-25T10:30:24.425Z,22048.00
2019-03-25T10:31:24.469Z,21440.00
2019-03-25T10:32:24.439Z,21440.00
2019-03-25T10:33:24.399Z,23520.00
2019-03-25T10:34:24.398Z,25824.00
2019-03-25T10:35:24.376Z,26848.00
2019-03-25T10:36:24.370Z,29344.00
2019-03-25T10:37:24.373Z,54624.00
2019-03-25T10:38:24.396Z,50336.00
2019-03-25T10:39:24.338Z,40128.00
2019-03-25T10:40:24.375Z,96416.00
2019-03-25T10:41:24.327Z,103200.00
2019-03-25T10:42:24.302Z,40896.00
2019-03-25T10:43:24.303Z,58208.00
2019-03-25T10:44:24.307Z,44896.00
2019-03-25T10:45:24.272Z,46912.00
2019-03-25T10:46:24.320Z,62624.00
2019-03-25T10:47:24.242Z,62368.00
2019-03-25T10:48:24.231Z,86688.00
2019-03-25T10:49:24.240Z,85536.00
2019-03-25T10:50:24.228Z,62496.00
2019-03-25T10:51:24.205Z,40736.00
2019-03-25T10:52:24.227Z,28992.00
2019-03-25T10:53:24.201Z,26688.00
2019-03-25T10:54:24.289Z,26272.00
2019-03-25T10:55:24.179Z,24864.00
2019-03-25T10:56:24.152Z,25600.00
2019-03-25T10:57:24.147Z,25440.00
2019-03-25T10:58:24.179Z,18848.00
2019-03-25T10:59:24.118Z,15928.00
2019-03-25T11:00:24.115Z,15300.00
2019-03-25T11:01:24.096Z,14868.00
2019-03-25T11:02:24.077Z,14824.00
2019-03-25T11:03:24.117Z,14388.00
2019-03-25T11:04:24.109Z,13984.00
2019-03-25T11:05:24.105Z,13860.00
2019-03-25T11:06:24.047Z,14372.00
2019-03-25T11:07:24.062Z,15796.00
2019-03-25T11:08:24.019Z,17288.00
2019-03-25T11:09:24.069Z,18688.00
2019-03-25T11:10:23.991Z,20160.00
2019-03-25T11:11:24.020Z,20672.00
2019-03-25T11:12:23.975Z,21184.00
2019-03-25T11:13:23.975Z,21632.00
2019-03-25T11:14:23.968Z,21248.00
2019-03-25T11:15:23.991Z,20416.00
2019-03-25T11:16:23.948Z,19552.00
2019-03-25T11:17:23.920Z,18400.00
2019-03-25T11:18:23.932Z,16824.00
2019-03-25T11:19:23.898Z,15276.00
2019-03-25T11:20:23.895Z,14556.00
2019-03-25T11:21:23.911Z,14408.00
2019-03-25T11:22:23.861Z,14736.00
2019-03-25T11:23:23.888Z,15260.00
2019-03-25T11:24:23.883Z,16592.00
2019-03-25T11:25:23.835Z,16568.00
2019-03-25T11:26:23.858Z,16396.00
2019-03-25T11:27:23.815Z,16600.00
2019-03-25T11:28:23.797Z,17192.00
2019-03-25T11:29:23.786Z,17312.00
2019-03-25T11:30:23.785Z,17464.00
2019-03-25T11:31:23.766Z,16860.00
2019-03-25T11:32:23.794Z,15792.00
2019-03-25T11:33:23.747Z,14820.00
2019-03-25T11:34:23.738Z,13988.00
2019-03-25T11:35:23.734Z,13768.00
2019-03-25T11:36:23.718Z,13300.00
2019-03-25T11:37:23.705Z,12744.00
2019-03-25T11:38:23.727Z,11940.00
2019-03-25T11:39:23.695Z,10632.00
2019-03-25T11:40:23.671Z,9624.00
2019-03-25T11:41:23.664Z,9416.00
2019-03-25T11:42:23.652Z,9200.00
2019-03-25T11:43:23.639Z,9276.00
2019-03-25T11:44:23.672Z,8848.00
2019-03-25T11:45:23.618Z,8788.00
2019-03-25T11:46:23.605Z,8324.00
2019-03-25T11:47:23.842Z,8508.00
2019-03-25T11:48:23.584Z,8700.00
2019-03-25T11:49:23.598Z,8184.00
2019-03-25T11:50:23.608Z,7912.00
2019-03-25T11:51:23.552Z,7972.00
2019-03-25T11:52:23.549Z,7832.00
2019-03-25T11:53:23.534Z,7892.00
2019-03-25T11:54:23.522Z,7840.00
2019-03-25T11:55:23.510Z,7812.00
2019-03-25T11:56:23.544Z,7920.00
2019-03-25T11:57:24.191Z,8228.00
2019-03-25T11:58:23.514Z,9148.00
2019-03-25T11:59:23.469Z,10064.00
2019-03-25T12:00:23.471Z,11144.00
2019-03-25T12:01:23.463Z,12436.00
2019-03-25T12:02:23.434Z,13604.00
2019-03-25T12:03:23.447Z,14540.00
2019-03-25T12:04:23.475Z,15188.00
2019-03-25T12:05:23.423Z,15488.00
2019-03-25T12:06:23.509Z,15716.00
2019-03-25T12:07:23.386Z,16340.00
2019-03-25T12:08:23.366Z,16676.00
2019-03-25T12:09:23.356Z,16388.00
2019-03-25T12:10:23.385Z,16200.00
2019-03-25T12:11:23.760Z,16264.00
2019-03-25T12:12:23.372Z,16892.00
2019-03-25T12:13:23.351Z,17476.00
2019-03-25T12:14:23.306Z,18016.00
2019-03-25T12:15:23.296Z,18720.00
2019-03-25T12:16:23.291Z,18784.00
2019-03-25T12:17:23.314Z,17176.00
2019-03-25T12:18:23.265Z,15912.00
2019-03-25T12:19:23.302Z,15548.00
2019-03-25T12:20:23.284Z,14904.00
2019-03-25T12:21:23.245Z,13920.00
2019-03-25T12:22:23.225Z,12740.00
2019-03-25T12:23:26.525Z,11624.00
2019-03-25T12:24:23.225Z,11068.00
2019-03-25T12:25:24.403Z,10540.00
2019-03-25T12:26:23.225Z,10044.00
2019-03-25T12:27:23.211Z,9632.00
2019-03-25T12:28:23.163Z,9288.00
2019-03-25T12:29:30.077Z,9144.00
2019-03-25T12:30:24.140Z,9528.00
2019-03-25T12:31:23.144Z,10140.00
2019-03-25T12:32:23.156Z,10408.00
2019-03-25T12:33:23.109Z,10572.00
2019-03-25T12:34:23.216Z,10576.00
2019-03-25T12:35:23.456Z,10852.00
2019-03-25T12:36:23.101Z,11460.00
2019-03-25T12:37:23.055Z,11760.00
2019-03-25T12:38:23.095Z,11700.00
2019-03-25T12:39:23.053Z,11864.00
2019-03-25T12:40:23.043Z,12508.00
2019-03-25T12:41:23.017Z,13664.00
2019-03-25T12:42:23.021Z,15472.00
2019-03-25T12:43:22.993Z,17888.00
2019-03-25T12:44:23.040Z,17128.00
2019-03-25T12:45:22.987Z,15560.00
2019-03-25T12:46:22.967Z,13904.00